GWACJ EGSF-EGTU
Flight info
| Callsign | GWACJ |
|---|---|
| Flight time | N/A |
| Altitude | 2500 |
| Route | VFR |
| Aircraft | BE76/L-SDFGI/C |
Departure
| Time | 2026-04-29 08:36 |
|---|---|
| Airport | Peterborough Business Airport (EGSF) |
Arrival
| Time | N/A |
|---|---|
| Airport | Dunkeswell Airfield (EGTU) |
| Time | Latitude | Longitude | Altitude | Speed | Heading |
|---|---|---|---|---|---|
| 2026-04-29 08:21 | 52.46856 | -0.24383 | 30 ft | 0 kts | 274° |
| 2026-04-29 08:26 | 52.46856 | -0.24384 | 30 ft | 0 kts | 274° |
| 2026-04-29 08:28 | 52.46856 | -0.24385 | 30 ft | 0 kts | 274° |
| 2026-04-29 08:29 | 52.46857 | -0.24386 | 30 ft | 1 kts | 274° |
| 2026-04-29 08:29 | 52.46854 | -0.24393 | 30 ft | 1 kts | 214° |
| 2026-04-29 08:29 | 52.46841 | -0.24423 | 30 ft | 5 kts | 238° |
| 2026-04-29 08:30 | 52.46826 | -0.24439 | 30 ft | 0 kts | 148° |
| 2026-04-29 08:31 | 52.46825 | -0.24439 | 30 ft | 0 kts | 148° |
| 2026-04-29 08:31 | 52.46825 | -0.24438 | 30 ft | 0 kts | 148° |
| 2026-04-29 08:32 | 52.46824 | -0.24437 | 30 ft | 0 kts | 148° |
| 2026-04-29 08:33 | 52.46781 | -0.24461 | 30 ft | 8 kts | 265° |
| 2026-04-29 08:33 | 52.46786 | -0.24559 | 30 ft | 10 kts | 274° |
| 2026-04-29 08:34 | 52.46790 | -0.24684 | 30 ft | 12 kts | 273° |
| 2026-04-29 08:34 | 52.46797 | -0.24843 | 30 ft | 19 kts | 274° |
| 2026-04-29 08:34 | 52.46813 | -0.25143 | 30 ft | 31 kts | 277° |
| 2026-04-29 08:34 | 52.46828 | -0.25531 | 30 ft | 36 kts | 272° |
| 2026-04-29 08:35 | 52.46838 | -0.25841 | 30 ft | 7 kts | 287° |
| 2026-04-29 08:35 | 52.46846 | -0.25839 | 30 ft | 1 kts | 92° |
| 2026-04-29 08:35 | 52.46838 | -0.25669 | 30 ft | 51 kts | 94° |
| 2026-04-29 08:35 | 52.46796 | -0.24777 | 131 ft | 96 kts | 92° |
| 2026-04-29 08:36 | 52.46791 | -0.23643 | 622 ft | 98 kts | 85° |
| 2026-04-29 08:36 | 52.46870 | -0.22568 | 1214 ft | 93 kts | 89° |
| 2026-04-29 08:36 | 52.46618 | -0.21495 | 1587 ft | 113 kts | 122° |
| 2026-04-29 08:36 | 52.45966 | -0.20681 | 1980 ft | 132 kts | 145° |
| 2026-04-29 08:37 | 52.44960 | -0.20396 | 2139 ft | 163 kts | 176° |
| 2026-04-29 08:37 | 52.43865 | -0.21097 | 2317 ft | 177 kts | 207° |
| 2026-04-29 08:37 | 52.42901 | -0.22403 | 2469 ft | 180 kts | 214° |
| 2026-04-29 08:37 | 52.41898 | -0.23668 | 2494 ft | 184 kts | 214° |
| 2026-04-29 08:38 | 52.41056 | -0.25253 | 2516 ft | 188 kts | 236° |
| 2026-04-29 08:38 | 52.40567 | -0.27266 | 2531 ft | 194 kts | 257° |
| 2026-04-29 08:38 | 52.40276 | -0.29425 | 2525 ft | 196 kts | 257° |
| 2026-04-29 08:38 | 52.39858 | -0.31557 | 2502 ft | 195 kts | 248° |
| 2026-04-29 08:39 | 52.39376 | -0.33624 | 2508 ft | 192 kts | 249° |
| 2026-04-29 08:39 | 52.38890 | -0.35658 | 2517 ft | 194 kts | 243° |
| 2026-04-29 08:39 | 52.38178 | -0.37541 | 2505 ft | 191 kts | 221° |
| 2026-04-29 08:39 | 52.37169 | -0.38906 | 2520 ft | 186 kts | 209° |
| 2026-04-29 08:40 | 52.36110 | -0.40100 | 2505 ft | 184 kts | 207° |
| 2026-04-29 08:40 | 52.35050 | -0.41265 | 2501 ft | 183 kts | 207° |
| 2026-04-29 08:40 | 52.33997 | -0.42415 | 2497 ft | 182 kts | 207° |
| 2026-04-29 08:40 | 52.32949 | -0.43560 | 2496 ft | 182 kts | 207° |
| 2026-04-29 08:41 | 52.31882 | -0.44718 | 2497 ft | 182 kts | 206° |
| 2026-04-29 08:41 | 52.30830 | -0.45855 | 2490 ft | 182 kts | 206° |
| 2026-04-29 08:41 | 52.29782 | -0.46986 | 2487 ft | 181 kts | 206° |
| 2026-04-29 08:41 | 52.28725 | -0.48128 | 2496 ft | 181 kts | 206° |
| 2026-04-29 08:42 | 52.27678 | -0.49264 | 2488 ft | 181 kts | 206° |
| 2026-04-29 08:42 | 52.26613 | -0.50409 | 2490 ft | 183 kts | 206° |
| 2026-04-29 08:42 | 52.25541 | -0.51553 | 2486 ft | 184 kts | 206° |
| 2026-04-29 08:42 | 52.24475 | -0.52681 | 2463 ft | 184 kts | 206° |
| 2026-04-29 08:43 | 52.23395 | -0.53825 | 2482 ft | 182 kts | 206° |
| 2026-04-29 08:43 | 52.22330 | -0.54963 | 2479 ft | 186 kts | 206° |
| 2026-04-29 08:43 | 52.21248 | -0.56114 | 2482 ft | 188 kts | 207° |
| 2026-04-29 08:43 | 52.20150 | -0.57286 | 2458 ft | 186 kts | 206° |
| 2026-04-29 08:44 | 52.19074 | -0.58424 | 2466 ft | 183 kts | 206° |
| 2026-04-29 08:44 | 52.18003 | -0.59563 | 2475 ft | 184 kts | 206° |
| 2026-04-29 08:44 | 52.16921 | -0.60706 | 2474 ft | 186 kts | 206° |
| 2026-04-29 08:44 | 52.15843 | -0.61866 | 2456 ft | 186 kts | 208° |
| 2026-04-29 08:45 | 52.14841 | -0.63190 | 2470 ft | 186 kts | 219° |
| 2026-04-29 08:45 | 52.13975 | -0.64800 | 2494 ft | 192 kts | 230° |
| 2026-04-29 08:45 | 52.13224 | -0.66641 | 2480 ft | 195 kts | 235° |
| 2026-04-29 08:45 | 52.12513 | -0.68510 | 2442 ft | 194 kts | 236° |
| 2026-04-29 08:46 | 52.11824 | -0.70360 | 2463 ft | 190 kts | 236° |
| 2026-04-29 08:46 | 52.11139 | -0.72199 | 2466 ft | 189 kts | 236° |
| 2026-04-29 08:46 | 52.10467 | -0.74026 | 2466 ft | 189 kts | 236° |
| 2026-04-29 08:46 | 52.09780 | -0.75855 | 2460 ft | 188 kts | 236° |
| 2026-04-29 08:47 | 52.09097 | -0.77695 | 2471 ft | 188 kts | 236° |
| 2026-04-29 08:47 | 52.08426 | -0.79509 | 2474 ft | 191 kts | 236° |
| 2026-04-29 08:47 | 52.07733 | -0.81372 | 2471 ft | 192 kts | 236° |
| 2026-04-29 08:47 | 52.07039 | -0.83230 | 2447 ft | 192 kts | 236° |
| 2026-04-29 08:48 | 52.06327 | -0.85064 | 2465 ft | 188 kts | 227° |
| 2026-04-29 08:48 | 52.05363 | -0.86452 | 2501 ft | 186 kts | 210° |
| 2026-04-29 08:48 | 52.04283 | -0.87660 | 2476 ft | 188 kts | 206° |
| 2026-04-29 08:48 | 52.03188 | -0.88818 | 2448 ft | 187 kts | 206° |
| 2026-04-29 08:49 | 52.02118 | -0.89946 | 2462 ft | 184 kts | 205° |
| 2026-04-29 08:49 | 52.01045 | -0.91065 | 2460 ft | 184 kts | 206° |
| 2026-04-29 08:49 | 51.99956 | -0.92202 | 2465 ft | 184 kts | 206° |
| 2026-04-29 08:49 | 51.98882 | -0.93336 | 2450 ft | 184 kts | 206° |
| 2026-04-29 08:50 | 51.97821 | -0.94460 | 2464 ft | 183 kts | 206° |
| 2026-04-29 08:50 | 51.96760 | -0.95638 | 2468 ft | 185 kts | 209° |
| 2026-04-29 08:50 | 51.95723 | -0.96894 | 2460 ft | 186 kts | 210° |
| 2026-04-29 08:50 | 51.94687 | -0.98166 | 2451 ft | 186 kts | 210° |
| 2026-04-29 08:51 | 51.93666 | -0.99427 | 2473 ft | 184 kts | 211° |
| 2026-04-29 08:51 | 51.92636 | -1.00700 | 2464 ft | 188 kts | 210° |
| 2026-04-29 08:51 | 51.91590 | -1.01986 | 2470 ft | 189 kts | 211° |
| 2026-04-29 08:51 | 51.90538 | -1.03278 | 2442 ft | 188 kts | 211° |
| 2026-04-29 08:52 | 51.89498 | -1.04564 | 2456 ft | 186 kts | 211° |
| 2026-04-29 08:52 | 51.88471 | -1.05833 | 2455 ft | 188 kts | 211° |
| 2026-04-29 08:52 | 51.87431 | -1.07119 | 2445 ft | 189 kts | 211° |
| 2026-04-29 08:52 | 51.86390 | -1.08392 | 2428 ft | 188 kts | 210° |
| 2026-04-29 08:53 | 51.85356 | -1.09695 | 2447 ft | 186 kts | 211° |
| 2026-04-29 08:53 | 51.84335 | -1.10960 | 2440 ft | 187 kts | 211° |
| 2026-04-29 08:53 | 51.83288 | -1.12247 | 2441 ft | 187 kts | 210° |
| 2026-04-29 08:53 | 51.82252 | -1.13517 | 2432 ft | 186 kts | 211° |
| 2026-04-29 08:54 | 51.81231 | -1.14763 | 2444 ft | 185 kts | 210° |
| 2026-04-29 08:54 | 51.80197 | -1.16027 | 2443 ft | 188 kts | 211° |
| 2026-04-29 08:54 | 51.79150 | -1.17311 | 2443 ft | 189 kts | 210° |
| 2026-04-29 08:54 | 51.78103 | -1.18580 | 2425 ft | 188 kts | 210° |
| 2026-04-29 08:55 | 51.77085 | -1.19890 | 2451 ft | 187 kts | 213° |
| 2026-04-29 08:55 | 51.76078 | -1.21246 | 2447 ft | 192 kts | 214° |
| 2026-04-29 08:55 | 51.75026 | -1.22676 | 2442 ft | 195 kts | 214° |
| 2026-04-29 08:55 | 51.74002 | -1.24070 | 2411 ft | 193 kts | 214° |
| 2026-04-29 08:56 | 51.72987 | -1.25469 | 2444 ft | 189 kts | 214° |
| 2026-04-29 08:56 | 51.71980 | -1.26855 | 2440 ft | 192 kts | 214° |
| 2026-04-29 08:56 | 51.70949 | -1.28250 | 2440 ft | 193 kts | 214° |
| 2026-04-29 08:56 | 51.69926 | -1.29646 | 2413 ft | 191 kts | 214° |
| 2026-04-29 08:57 | 51.69054 | -1.31254 | 2425 ft | 194 kts | 239° |
| 2026-04-29 08:57 | 51.68773 | -1.33357 | 2459 ft | 192 kts | 275° |
| 2026-04-29 08:57 | 51.69175 | -1.35372 | 2451 ft | 183 kts | 310° |
| 2026-04-29 08:57 | 51.70065 | -1.36662 | 2438 ft | 162 kts | 345° |
| 2026-04-29 08:58 | 51.71061 | -1.36857 | 2455 ft | 136 kts | 22° |
| 2026-04-29 08:58 | 51.71778 | -1.36077 | 2443 ft | 116 kts | 60° |
| 2026-04-29 08:58 | 51.71914 | -1.35292 | 2429 ft | 108 kts | 88° |
| 2026-04-29 08:58 | 51.71536 | -1.34243 | 2431 ft | 117 kts | 132° |
| 2026-04-29 08:59 | 51.70696 | -1.33984 | 2454 ft | 129 kts | 169° |
| 2026-04-29 08:59 | 51.69800 | -1.34147 | 2453 ft | 133 kts | 174° |
| 2026-04-29 08:59 | 51.68873 | -1.34369 | 2444 ft | 134 kts | 175° |
| 2026-04-29 08:59 | 51.68000 | -1.34291 | 2414 ft | 116 kts | 140° |
| 2026-04-29 09:00 | 51.67573 | -1.33434 | 2440 ft | 92 kts | 95° |
| 2026-04-29 09:00 | 51.67525 | -1.32424 | 2456 ft | 91 kts | 86° |
| 2026-04-29 09:00 | 51.67530 | -1.31390 | 2442 ft | 93 kts | 84° |
| 2026-04-29 09:00 | 51.67827 | -1.30518 | 2431 ft | 98 kts | 40° |
| 2026-04-29 09:01 | 51.68553 | -1.30464 | 2465 ft | 114 kts | 1° |